createdAt,value
2023-03-16T00:02:19.660Z,0.60
2023-03-16T00:05:21.205Z,0.80
2023-03-16T00:08:22.901Z,0.63
2023-03-16T00:11:28.224Z,0.70
2023-03-16T00:14:32.263Z,0.80
2023-03-16T00:17:34.683Z,0.70
2023-03-16T00:20:36.207Z,0.60
2023-03-16T00:23:37.748Z,0.65
2023-03-16T00:26:39.279Z,0.60
2023-03-16T00:29:48.355Z,0.60
2023-03-16T00:32:49.946Z,0.60
2023-03-16T00:36:02.072Z,0.60
2023-03-16T00:39:05.420Z,0.68
2023-03-16T00:42:07.354Z,0.73
2023-03-16T00:45:09.774Z,0.60
2023-03-16T00:48:11.735Z,0.50
2023-03-16T00:51:16.452Z,0.60
2023-03-16T00:54:18.198Z,0.60
2023-03-16T00:57:21.520Z,0.82
2023-03-16T01:00:26.602Z,0.68
2023-03-16T01:03:28.355Z,0.90
2023-03-16T01:06:30.362Z,0.70
2023-03-16T01:09:36.720Z,0.70
2023-03-16T01:12:38.250Z,0.70
2023-03-16T01:15:40.160Z,0.50
2023-03-16T01:18:42.102Z,0.70
2023-03-16T01:21:43.673Z,0.70
2023-03-16T01:24:46.722Z,0.70
2023-03-16T01:27:48.190Z,0.60
2023-03-16T01:30:53.930Z,0.70
2023-03-16T01:33:55.573Z,0.80
2023-03-16T01:37:02.888Z,0.50
2023-03-16T01:40:24.624Z,0.60
2023-03-16T01:43:28.887Z,0.68
2023-03-16T01:46:32.548Z,0.60
2023-03-16T01:49:38.360Z,0.70
2023-03-16T01:52:40.324Z,0.60
2023-03-16T01:55:42.905Z,0.50
2023-03-16T01:58:46.348Z,0.70
2023-03-16T02:01:48.982Z,0.52
2023-03-16T02:05:07.498Z,0.60
2023-03-16T02:08:12.411Z,0.73
2023-03-16T02:11:18.000Z,0.52
2023-03-16T02:14:30.384Z,0.50
2023-03-16T02:17:33.997Z,0.47
2023-03-16T02:20:48.924Z,0.60
2023-03-16T02:23:51.535Z,0.63
2023-03-16T02:27:01.838Z,0.50
2023-03-16T02:30:15.481Z,0.68
2023-03-16T02:33:33.976Z,0.60
2023-03-16T02:36:38.010Z,0.60
2023-03-16T02:39:39.974Z,0.57
2023-03-16T02:42:42.593Z,0.60
2023-03-16T02:45:53.545Z,0.57
2023-03-16T02:49:16.235Z,0.60
2023-03-16T02:52:17.899Z,0.68
2023-03-16T02:55:19.534Z,0.60
2023-03-16T02:58:21.678Z,0.60
2023-03-16T03:01:24.224Z,0.60
2023-03-16T03:04:25.756Z,0.57
2023-03-16T03:07:31.723Z,0.50
2023-03-16T03:10:37.974Z,0.55
2023-03-16T03:13:39.615Z,0.50
2023-03-16T03:16:47.193Z,0.68
2023-03-16T03:19:50.371Z,0.50
2023-03-16T03:22:54.684Z,0.80
2023-03-16T03:25:59.926Z,0.50
2023-03-16T03:29:02.409Z,0.70
2023-03-16T03:32:04.783Z,0.57
2023-03-16T03:35:07.608Z,0.50
2023-03-16T03:38:09.140Z,0.60
2023-03-16T03:41:11.164Z,0.50
2023-03-16T03:44:14.056Z,0.60
2023-03-16T03:47:15.623Z,0.55
2023-03-16T03:50:17.657Z,0.65
2023-03-16T03:53:29.318Z,0.60
2023-03-16T03:57:03.640Z,0.60
2023-03-16T04:00:11.289Z,0.55
2023-03-16T04:03:17.508Z,0.60
2023-03-16T04:06:20.312Z,0.60
2023-03-16T04:09:21.941Z,0.60
2023-03-16T04:12:24.257Z,0.70
2023-03-16T04:15:27.325Z,0.60
2023-03-16T04:18:40.838Z,0.50
2023-03-16T04:21:44.549Z,0.50
2023-03-16T04:24:46.192Z,0.70
2023-03-16T04:27:48.786Z,0.70
2023-03-16T04:30:54.562Z,0.60
2023-03-16T04:34:02.317Z,0.60
2023-03-16T04:37:04.017Z,0.60
2023-03-16T04:40:15.465Z,0.60
2023-03-16T04:43:19.450Z,0.60
2023-03-16T04:46:22.270Z,0.60
2023-03-16T04:49:24.732Z,0.55
2023-03-16T04:52:26.389Z,0.60
2023-03-16T04:55:28.193Z,0.60
2023-03-16T04:58:29.881Z,0.70
2023-03-16T05:01:33.006Z,0.60
2023-03-16T05:04:36.946Z,0.60
2023-03-16T05:07:41.415Z,0.60
2023-03-16T05:10:44.619Z,0.50
2023-03-16T05:13:46.227Z,0.70
2023-03-16T05:16:47.987Z,0.55
2023-03-16T05:19:50.353Z,0.70
2023-03-16T05:22:53.490Z,0.60
2023-03-16T05:26:01.402Z,0.60
2023-03-16T05:29:05.930Z,0.70
2023-03-16T05:32:08.369Z,0.60
2023-03-16T05:35:13.458Z,0.68
2023-03-16T05:38:15.847Z,0.60
2023-03-16T05:41:18.749Z,0.75
2023-03-16T05:44:39.003Z,0.60
2023-03-16T05:47:49.327Z,0.70
2023-03-16T05:50:51.240Z,0.50
2023-03-16T05:53:56.607Z,0.70
2023-03-16T05:57:06.988Z,0.55
2023-03-16T06:00:14.483Z,0.70
2023-03-16T06:03:22.719Z,0.60
2023-03-16T06:06:25.972Z,0.73
2023-03-16T06:09:33.737Z,0.70
2023-03-16T06:12:38.229Z,0.75
2023-03-16T06:15:40.499Z,0.70
2023-03-16T06:18:42.546Z,0.80
2023-03-16T06:21:45.156Z,0.70
2023-03-16T06:24:47.302Z,0.60
2023-03-16T06:27:52.838Z,0.60
2023-03-16T06:30:56.233Z,0.70
2023-03-16T06:34:01.181Z,0.60
2023-03-16T06:37:03.951Z,0.68
2023-03-16T06:40:06.252Z,0.60
2023-03-16T06:43:09.145Z,0.70
2023-03-16T06:46:11.200Z,0.70
2023-03-16T06:49:12.901Z,0.73
2023-03-16T06:52:14.861Z,0.60
2023-03-16T06:55:16.522Z,0.82
2023-03-16T06:58:21.291Z,0.88
2023-03-16T07:01:23.217Z,0.73
2023-03-16T07:04:25.027Z,0.75
2023-03-16T07:07:48.288Z,0.80
2023-03-16T07:10:54.444Z,0.70
2023-03-16T07:13:56.316Z,0.80
2023-03-16T07:16:58.328Z,0.82
2023-03-16T07:20:00.919Z,0.95
2023-03-16T07:23:02.510Z,0.80
2023-03-16T07:26:04.045Z,0.80
2023-03-16T07:29:08.014Z,0.85
2023-03-16T07:32:09.978Z,0.70
2023-03-16T07:35:13.430Z,0.75
2023-03-16T07:38:15.099Z,0.80
2023-03-16T07:41:16.752Z,0.80
2023-03-16T07:44:18.337Z,0.80
2023-03-16T07:47:26.389Z,0.70
2023-03-16T07:50:31.091Z,0.73
2023-03-16T07:53:32.959Z,1.00
2023-03-16T07:56:49.870Z,0.80
2023-03-16T08:00:14.022Z,0.90
2023-03-16T08:03:16.966Z,1.27
2023-03-16T08:06:21.369Z,1.02
2023-03-16T08:09:23.083Z,1.20
2023-03-16T08:12:24.926Z,1.00
2023-03-16T08:15:26.776Z,1.20
2023-03-16T08:18:34.923Z,1.20
2023-03-16T08:21:53.113Z,1.30
2023-03-16T08:24:58.552Z,1.00
2023-03-16T08:28:00.286Z,1.20
2023-03-16T08:31:01.957Z,1.20
2023-03-16T08:34:19.521Z,1.27
2023-03-16T08:37:22.070Z,1.17
2023-03-16T08:40:29.603Z,1.10
2023-03-16T08:43:33.605Z,1.23
2023-03-16T08:46:35.645Z,1.05
2023-03-16T08:49:38.135Z,1.25
2023-03-16T08:52:44.970Z,1.20
2023-03-16T08:55:46.645Z,1.20
2023-03-16T08:58:50.490Z,1.00
2023-03-16T09:01:52.879Z,1.27
2023-03-16T09:04:54.682Z,1.55
2023-03-16T09:07:56.487Z,1.30
2023-03-16T09:11:07.508Z,1.10
2023-03-16T09:14:08.982Z,1.10
2023-03-16T09:17:11.705Z,1.40
2023-03-16T09:20:22.482Z,1.00
2023-03-16T09:23:29.056Z,1.25
2023-03-16T09:26:30.614Z,1.10
2023-03-16T09:29:33.271Z,1.00
2023-03-16T09:32:37.244Z,0.90
2023-03-16T09:35:38.961Z,0.88
2023-03-16T09:38:42.274Z,0.93
2023-03-16T09:41:48.781Z,1.00
2023-03-16T09:45:13.740Z,1.02
2023-03-16T09:48:17.121Z,1.00
2023-03-16T09:51:41.604Z,1.88
2023-03-16T09:55:26.133Z,1.13
2023-03-16T09:59:07.023Z,1.25
2023-03-16T10:03:17.715Z,1.00
2023-03-16T10:06:19.363Z,1.10
2023-03-16T10:10:01.962Z,1.05
2023-03-16T10:13:05.523Z,0.90
2023-03-16T10:16:30.690Z,1.20
2023-03-16T10:19:49.841Z,0.95
2023-03-16T10:22:53.013Z,0.80
2023-03-16T10:25:56.241Z,0.98
2023-03-16T10:29:00.984Z,1.02
2023-03-16T10:32:13.314Z,0.90
2023-03-16T10:35:38.048Z,1.25
2023-03-16T10:38:39.516Z,0.88
2023-03-16T10:41:47.798Z,0.80
2023-03-16T10:44:49.585Z,0.93
2023-03-16T10:47:51.138Z,1.00
2023-03-16T10:50:57.342Z,0.90
2023-03-16T10:54:04.949Z,0.80
2023-03-16T10:57:27.416Z,1.10
2023-03-16T11:00:38.425Z,1.08
2023-03-16T11:03:43.710Z,1.40
2023-03-16T11:06:56.939Z,0.77
2023-03-16T11:09:59.646Z,1.00
2023-03-16T11:13:22.648Z,0.90
2023-03-16T11:16:30.876Z,0.90
2023-03-16T11:19:38.687Z,0.80
2023-03-16T11:22:43.000Z,1.00
2023-03-16T11:25:48.554Z,0.95
2023-03-16T11:29:03.515Z,0.80
2023-03-16T11:32:11.963Z,0.82
2023-03-16T11:35:29.039Z,1.00
2023-03-16T11:38:44.029Z,0.90
2023-03-16T11:41:53.377Z,0.82
2023-03-16T11:45:19.650Z,0.80
2023-03-16T11:48:26.368Z,0.90
2023-03-16T11:51:45.754Z,0.93
2023-03-16T11:55:06.257Z,0.90
2023-03-16T11:58:29.232Z,0.80
2023-03-16T12:01:47.745Z,0.70
2023-03-16T12:05:17.693Z,0.80
2023-03-16T12:08:31.655Z,0.88
2023-03-16T12:11:40.917Z,0.95
2023-03-16T12:14:51.421Z,0.90
2023-03-16T12:17:57.473Z,0.80
2023-03-16T12:21:04.145Z,0.80
2023-03-16T12:24:14.856Z,0.90
2023-03-16T12:27:22.543Z,1.00
2023-03-16T12:30:39.503Z,0.80
2023-03-16T12:37:05.259Z,0.80
2023-03-16T12:40:25.781Z,0.90
2023-03-16T12:43:46.461Z,1.38
2023-03-16T12:47:04.507Z,1.00
2023-03-16T12:50:12.792Z,1.33
2023-03-16T12:53:44.057Z,1.00
2023-03-16T12:56:48.107Z,0.82
2023-03-16T12:59:57.445Z,0.80
2023-03-16T13:02:59.879Z,0.95
2023-03-16T13:06:03.365Z,0.82
2023-03-16T13:09:07.203Z,0.80
2023-03-16T13:12:10.384Z,0.80
2023-03-16T13:15:17.199Z,1.10
2023-03-16T13:18:22.093Z,0.80
2023-03-16T13:21:44.691Z,1.33
2023-03-16T13:25:14.252Z,0.90
2023-03-16T13:28:17.502Z,0.80
2023-03-16T13:31:41.192Z,0.90
2023-03-16T13:34:56.473Z,1.13
2023-03-16T13:38:05.739Z,0.70
2023-03-16T13:41:14.142Z,0.80
2023-03-16T13:44:15.893Z,0.80
2023-03-16T13:47:20.242Z,0.70
2023-03-16T13:50:22.137Z,0.95
2023-03-16T13:53:28.904Z,0.70
2023-03-16T13:56:32.625Z,0.90
2023-03-16T13:59:34.223Z,0.70
2023-03-16T14:02:43.576Z,0.80
2023-03-16T14:05:45.767Z,0.77
2023-03-16T14:08:50.628Z,0.77
2023-03-16T14:11:52.222Z,0.60
2023-03-16T14:14:55.719Z,0.80
2023-03-16T14:18:13.622Z,0.80
2023-03-16T14:21:22.866Z,0.80
2023-03-16T14:24:35.401Z,0.65
2023-03-16T14:27:40.462Z,0.70
2023-03-16T14:30:54.035Z,0.80
2023-03-16T14:34:01.755Z,0.90
2023-03-16T14:37:09.682Z,1.08
2023-03-16T14:40:30.722Z,0.65
2023-03-16T14:43:36.562Z,0.90
2023-03-16T14:46:41.116Z,0.80
2023-03-16T14:49:43.478Z,0.77
2023-03-16T14:52:45.815Z,0.57
2023-03-16T14:55:47.897Z,0.80
2023-03-16T14:58:49.367Z,0.90
2023-03-16T15:01:53.436Z,0.88
2023-03-16T15:04:56.937Z,0.90
2023-03-16T15:07:58.674Z,0.70
2023-03-16T15:11:04.830Z,0.85
2023-03-16T15:14:37.304Z,1.00
2023-03-16T15:17:38.827Z,0.70
2023-03-16T15:20:43.302Z,0.70
2023-03-16T15:23:45.103Z,1.00
2023-03-16T15:26:46.989Z,2.85
2023-03-16T15:29:48.644Z,34.95
2023-03-16T15:32:50.265Z,110.53
2023-03-16T15:35:57.793Z,78.03
2023-03-16T15:39:01.537Z,49.30
2023-03-16T15:42:06.038Z,34.30
2023-03-16T15:45:13.744Z,27.15
2023-03-16T15:48:16.862Z,21.48
2023-03-16T15:51:30.089Z,16.75
2023-03-16T15:54:33.884Z,12.93
2023-03-16T15:57:36.598Z,10.63
2023-03-16T16:00:39.557Z,7.30
2023-03-16T16:03:41.223Z,6.40
2023-03-16T16:06:43.660Z,5.70
2023-03-16T16:09:45.351Z,5.28
2023-03-16T16:12:53.082Z,4.85
2023-03-16T16:15:55.126Z,4.80
2023-03-16T16:18:56.893Z,4.50
2023-03-16T16:21:58.426Z,4.40
2023-03-16T16:24:59.959Z,4.68
2023-03-16T16:28:01.588Z,3.80
2023-03-16T16:31:03.168Z,3.70
2023-03-16T16:34:11.759Z,3.85
2023-03-16T16:37:13.296Z,3.50
2023-03-16T16:40:20.497Z,3.50
2023-03-16T16:43:30.842Z,3.50
2023-03-16T16:46:43.738Z,3.28
2023-03-16T16:49:45.384Z,2.92
2023-03-16T16:52:47.289Z,3.00
2023-03-16T16:55:49.346Z,3.00
2023-03-16T16:58:51.377Z,2.90
2023-03-16T17:01:57.311Z,2.60
2023-03-16T17:04:58.851Z,2.50
2023-03-16T17:08:04.066Z,2.78
2023-03-16T17:11:05.632Z,2.53
2023-03-16T17:14:10.525Z,2.63
2023-03-16T17:17:17.318Z,2.63
2023-03-16T17:20:25.823Z,2.50
2023-03-16T17:23:29.596Z,2.60
2023-03-16T17:26:37.222Z,2.38
2023-03-16T17:29:38.760Z,2.38
2023-03-16T17:32:40.509Z,2.30
2023-03-16T17:35:43.993Z,2.30
2023-03-16T17:38:45.564Z,2.35
2023-03-16T17:41:57.169Z,2.20
2023-03-16T17:44:58.870Z,2.08
2023-03-16T17:48:00.422Z,2.10
2023-03-16T17:51:01.929Z,2.03
2023-03-16T17:54:05.002Z,2.15
2023-03-16T17:57:16.316Z,2.00
2023-03-16T18:00:30.097Z,2.08
2023-03-16T18:03:32.574Z,2.30
2023-03-16T18:06:34.198Z,2.63
2023-03-16T18:09:35.658Z,2.10
2023-03-16T18:12:37.163Z,2.45
2023-03-16T18:15:39.306Z,2.30
2023-03-16T18:18:42.748Z,2.13
2023-03-16T18:21:45.604Z,2.25
2023-03-16T18:24:48.468Z,2.10
2023-03-16T18:27:51.236Z,2.20
2023-03-16T18:30:53.503Z,2.30
2023-03-16T18:33:57.878Z,2.10
2023-03-16T18:37:04.053Z,2.40
2023-03-16T18:40:06.478Z,2.20
2023-03-16T18:43:14.645Z,2.08
2023-03-16T18:46:33.313Z,2.20
2023-03-16T18:49:36.694Z,2.10
2023-03-16T18:52:40.255Z,2.50
2023-03-16T18:55:44.897Z,2.38
2023-03-16T18:58:48.093Z,2.08
2023-03-16T19:01:49.695Z,1.90
2023-03-16T19:04:51.288Z,2.00
2023-03-16T19:07:53.061Z,1.85
2023-03-16T19:10:58.932Z,1.67
2023-03-16T19:14:00.381Z,2.13
2023-03-16T19:17:02.190Z,2.00
2023-03-16T19:20:04.241Z,1.77
2023-03-16T19:23:32.627Z,1.83
2023-03-16T19:26:37.194Z,1.90
2023-03-16T19:29:38.752Z,1.70
2023-03-16T19:32:40.924Z,1.90
2023-03-16T19:35:51.429Z,1.70
2023-03-16T19:38:54.009Z,2.50
2023-03-16T19:41:58.332Z,1.65
2023-03-16T19:45:00.473Z,1.60
2023-03-16T19:48:02.153Z,1.40
2023-03-16T19:51:05.279Z,1.70
2023-03-16T19:54:06.883Z,1.63
2023-03-16T19:57:14.906Z,1.58
2023-03-16T20:00:26.600Z,1.80
2023-03-16T20:03:31.693Z,1.33
2023-03-16T20:06:33.262Z,1.60
2023-03-16T20:09:34.835Z,1.67
2023-03-16T20:12:38.379Z,1.60
2023-03-16T20:15:40.090Z,1.55
2023-03-16T20:18:41.734Z,1.58
2023-03-16T20:21:43.300Z,1.42
2023-03-16T20:24:45.709Z,1.88
2023-03-16T20:27:53.642Z,1.45
2023-03-16T20:30:55.362Z,1.40
2023-03-16T20:33:57.915Z,1.58
2023-03-16T20:36:59.605Z,1.50
2023-03-16T20:40:01.433Z,1.60
2023-03-16T20:43:03.973Z,1.50
2023-03-16T20:46:05.846Z,1.27
2023-03-16T20:49:22.491Z,1.30
2023-03-16T20:52:27.253Z,1.25
2023-03-16T20:55:31.246Z,1.40
2023-03-16T20:58:34.969Z,1.27
2023-03-16T21:01:38.758Z,1.25
2023-03-16T21:04:42.551Z,1.48
2023-03-16T21:07:44.050Z,1.30
2023-03-16T21:10:47.467Z,1.27
2023-03-16T21:13:48.952Z,1.20
2023-03-16T21:16:51.496Z,1.20
2023-03-16T21:19:52.956Z,1.50
2023-03-16T21:22:54.690Z,1.30
2023-03-16T21:26:01.292Z,1.90
2023-03-16T21:32:34.717Z,1.30
2023-03-16T21:35:37.790Z,1.08
2023-03-16T21:38:39.268Z,1.20
2023-03-16T21:41:41.096Z,1.20
2023-03-16T21:44:43.004Z,1.05
2023-03-16T21:47:45.983Z,1.35
2023-03-16T21:50:48.350Z,0.95
2023-03-16T21:53:49.840Z,1.00
2023-03-16T21:56:51.365Z,1.23
2023-03-16T21:59:52.843Z,1.02
2023-03-16T22:02:57.630Z,1.00
2023-03-16T22:06:00.330Z,1.10
2023-03-16T22:09:01.849Z,1.20
2023-03-16T22:12:03.421Z,1.08
2023-03-16T22:15:05.278Z,1.13
2023-03-16T22:18:13.724Z,1.08
2023-03-16T22:21:33.033Z,1.30
2023-03-16T22:24:36.322Z,0.90
2023-03-16T22:27:37.787Z,1.00
2023-03-16T22:30:39.876Z,1.08
2023-03-16T22:33:42.903Z,1.00
2023-03-16T22:36:44.390Z,1.20
2023-03-16T22:39:47.254Z,0.98
2023-03-16T22:42:48.892Z,0.95
2023-03-16T22:45:54.565Z,1.20
2023-03-16T22:48:56.708Z,1.10
2023-03-16T22:51:58.188Z,1.00
2023-03-16T22:55:01.587Z,1.10
2023-03-16T22:58:14.859Z,0.90
2023-03-16T23:01:20.808Z,1.00
2023-03-16T23:04:32.186Z,1.00
2023-03-16T23:07:34.254Z,1.00
2023-03-16T23:10:37.085Z,0.90
2023-03-16T23:13:38.611Z,0.80
2023-03-16T23:16:41.706Z,0.90
2023-03-16T23:19:43.557Z,0.82
2023-03-16T23:22:45.143Z,0.90
2023-03-16T23:25:47.788Z,1.13
2023-03-16T23:28:51.131Z,0.90
2023-03-16T23:31:53.580Z,1.05
2023-03-16T23:34:55.039Z,0.95
2023-03-16T23:37:56.562Z,0.90
2023-03-16T23:40:58.141Z,0.90
2023-03-16T23:44:00.427Z,0.90
2023-03-16T23:47:02.241Z,0.82
2023-03-16T23:50:05.980Z,1.17
2023-03-16T23:53:13.530Z,1.10
2023-03-16T23:56:15.511Z,0.80
2023-03-16T23:59:18.981Z,0.80
